Linton, ND

5:41 PM CST on February 06, 2016 (GMT -0600)
Linton Municipal Airport | | Change Station
CLOSE
Current Station
Airport
Location: Linton Municipal Airport,
Elevation: 1778 ft
Nearby Weather Stations
Active Advisory: High Wind Warning

Elev 1778 ft 46.22 °N, 100.25 °W | Updated 6 minutes ago

Partly Cloudy
Partly Cloudy
46 °F
Feels Like 42 °F
N
9
Wind Variable Wind from WSW

Today
High -- | Low -- °F
--% Chance of Precip.
Yesterday
High -- | Low -- °F
Precip. -- in
Pressure 29.72 in
Visibility 10.0 miles
Clouds Few 8000 ft
Scattered Clouds 12000 ft
Windchill 42 °F
Dew Point 30 °F
Humidity 53%
Rainfall 0.00 in
Snow Depth Not available.
7:58 AM 5:52 PM
Waning Crescent, 3% visible
METAR K7L2 062335Z AUTO 24008KT 10SM FEW080 SCT120 08/M01 A2972 RMK AO2
Pressure 29.72 in
Visibility 10.0 miles
Clouds Few 8000 ft
Scattered Clouds 12000 ft
Windchill 42 °F
Dew Point 30 °F
Humidity 53%
Rainfall 0.00 in
Snow Depth Not available.
7:58 AM 5:52 PM
Waning Crescent, 3% visible
METAR K7L2 062335Z AUTO 24008KT 10SM FEW080 SCT120 08/M01 A2972 RMK AO2

10-Day Weather Forecast

Almanac

Astronomy

Feb. 06, 2016 Rise Set
Actual Time
Civil Twilight
Nautical Twilight
Astronomical Twilight
Moon
Length of Visible Light
Length of Day
Tomorrow will be .
, % of the Moon is Illuminated

Today's Extremes

State Highs State Lows

Community

WunderPhotos

Upload Photos

1,891,098 photos uploaded!

WunderBlog® & News

Nearby

Air Quality

  Air Quality AQ Index Pollutant
Not available.

Snow Depth

Station Depth Elevation

Earthquake Activity

City Distance Mag. Time & Date
Minimum magnitude displayed is 2.5.

Coastal Water Temperatures

Place Temperature

Stations

Nearby Weather Stations

Station Location Temp. Windchill Dew Point Humidity Wind Precip. Elev Updated Type
                   

Watches & Warnings

High Wind Warning
Issued: 2:54 PM CST Feb. 6, 2016 – National Weather Service

... High Wind Warning now in effect from midnight tonight to 6 am
CST Monday...

* timing... late tonight through late Sunday night.

* Winds... northwest winds gusting up to 65 mph.

* Impacts... travel may become hazardous over central North
Dakota. Snow and blowing snow may reduce visibilities on
Sunday.

Precautionary/preparedness actions...

A High Wind Warning means a hazardous high wind event is expected
or occurring. Sustained wind speeds of at least 40 mph or gusts
of 58 mph or more can lead to property damage.